createdAt,value
2022-11-29T00:01:41.040Z,0.00
2022-11-29T00:04:08.412Z,0.00
2022-11-29T00:06:36.010Z,0.00
2022-11-29T00:09:06.370Z,0.00
2022-11-29T00:11:54.039Z,0.00
2022-11-29T00:14:21.698Z,0.00
2022-11-29T00:16:55.090Z,0.00
2022-11-29T00:19:22.561Z,0.00
2022-11-29T00:21:49.784Z,0.00
2022-11-29T00:24:16.998Z,0.00
2022-11-29T00:26:44.125Z,0.00
2022-11-29T00:29:13.156Z,0.00
2022-11-29T00:31:40.667Z,0.00
2022-11-29T00:34:07.804Z,0.00
2022-11-29T00:36:35.417Z,0.00
2022-11-29T00:39:03.253Z,0.00
2022-11-29T00:41:30.538Z,0.00
2022-11-29T00:43:57.632Z,0.00
2022-11-29T00:46:25.370Z,0.00
2022-11-29T00:48:52.495Z,0.00
2022-11-29T00:51:19.713Z,0.00
2022-11-29T00:53:46.906Z,0.00
2022-11-29T00:56:14.093Z,0.00
2022-11-29T00:58:43.479Z,0.00
2022-11-29T01:01:11.559Z,0.00
2022-11-29T01:03:39.009Z,0.00
2022-11-29T01:06:07.635Z,0.00
2022-11-29T01:08:35.000Z,0.00
2022-11-29T01:11:03.288Z,0.00
2022-11-29T01:13:30.405Z,0.00
2022-11-29T01:15:58.209Z,0.00
2022-11-29T01:18:26.203Z,0.00
2022-11-29T01:21:07.286Z,0.00
2022-11-29T01:23:34.998Z,0.00
2022-11-29T01:26:06.857Z,0.00
2022-11-29T01:28:34.863Z,0.00
2022-11-29T01:31:13.021Z,0.10
2022-11-29T01:33:40.297Z,0.00
2022-11-29T01:36:08.245Z,0.00
2022-11-29T01:38:36.135Z,0.00
2022-11-29T01:41:05.056Z,0.00
2022-11-29T01:43:32.718Z,0.00
2022-11-29T01:46:00.126Z,0.00
2022-11-29T01:48:29.995Z,0.00
2022-11-29T01:50:59.963Z,0.00
2022-11-29T01:53:27.399Z,0.00
2022-11-29T01:55:57.983Z,0.00
2022-11-29T01:58:25.185Z,0.00
2022-11-29T02:00:52.314Z,0.00
2022-11-29T02:03:19.840Z,0.00
2022-11-29T02:05:49.032Z,0.00
2022-11-29T02:08:17.197Z,0.00
2022-11-29T02:11:06.104Z,0.00
2022-11-29T02:13:35.973Z,0.00
2022-11-29T02:16:03.148Z,0.00
2022-11-29T02:18:36.485Z,0.00
2022-11-29T02:21:11.809Z,0.00
2022-11-29T02:26:25.456Z,0.00
2022-11-29T02:29:04.895Z,0.00
2022-11-29T02:31:44.644Z,0.00
2022-11-29T02:34:17.316Z,0.00
2022-11-29T02:37:16.909Z,0.00
2022-11-29T02:39:59.543Z,0.00
2022-11-29T02:42:29.432Z,0.00
2022-11-29T02:44:56.478Z,0.00
2022-11-29T02:47:30.039Z,0.00
2022-11-29T02:49:57.082Z,0.00
2022-11-29T02:52:24.194Z,0.00
2022-11-29T02:54:55.999Z,0.00
2022-11-29T02:57:26.346Z,0.00
2022-11-29T03:00:07.836Z,0.10
2022-11-29T03:02:57.951Z,0.00
2022-11-29T03:05:48.575Z,0.00
2022-11-29T03:08:15.640Z,0.00
2022-11-29T03:10:45.240Z,0.00
2022-11-29T03:13:18.077Z,0.00
2022-11-29T03:15:49.131Z,0.00
2022-11-29T03:18:22.402Z,0.00
2022-11-29T03:21:04.633Z,0.00
2022-11-29T03:23:34.517Z,0.00
2022-11-29T03:26:04.604Z,0.00
2022-11-29T03:28:46.882Z,0.00
2022-11-29T03:31:19.626Z,0.00
2022-11-29T03:33:51.696Z,0.00
2022-11-29T03:36:42.083Z,0.00
2022-11-29T03:39:12.584Z,0.00
2022-11-29T03:41:44.697Z,0.00
2022-11-29T03:44:18.045Z,0.00
2022-11-29T03:46:45.179Z,0.00
2022-11-29T03:49:17.200Z,0.00
2022-11-29T03:52:03.010Z,0.00
2022-11-29T03:54:47.445Z,0.00
2022-11-29T03:57:18.146Z,0.00
2022-11-29T03:59:53.112Z,0.00
2022-11-29T04:02:34.485Z,0.00
2022-11-29T04:05:01.592Z,0.00
2022-11-29T04:07:34.772Z,0.00
2022-11-29T04:10:01.949Z,0.00
2022-11-29T04:12:44.737Z,0.00
2022-11-29T04:15:18.148Z,0.00
2022-11-29T04:17:58.570Z,0.00
2022-11-29T04:20:48.049Z,0.00
2022-11-29T04:23:34.393Z,0.00
2022-11-29T04:26:20.233Z,0.00
2022-11-29T04:29:13.798Z,0.00
2022-11-29T04:32:00.720Z,0.00
2022-11-29T04:34:45.343Z,0.00
2022-11-29T04:37:15.769Z,0.00
2022-11-29T04:39:54.708Z,0.00
2022-11-29T04:42:27.744Z,0.00
2022-11-29T04:44:57.721Z,0.00
2022-11-29T04:47:24.755Z,0.00
2022-11-29T04:49:57.752Z,0.00
2022-11-29T04:52:32.497Z,0.00
2022-11-29T04:54:59.553Z,0.00
2022-11-29T04:57:38.451Z,0.00
2022-11-29T05:00:13.885Z,0.00
2022-11-29T05:02:52.115Z,0.00
2022-11-29T05:05:42.060Z,0.00
2022-11-29T05:08:47.825Z,0.00
2022-11-29T05:11:27.429Z,0.00
2022-11-29T05:14:01.829Z,0.00
2022-11-29T05:16:47.378Z,0.00
2022-11-29T05:21:44.540Z,0.00
2022-11-29T05:24:31.856Z,0.00
2022-11-29T05:27:11.705Z,0.00
2022-11-29T05:29:54.721Z,0.00
2022-11-29T05:32:21.809Z,0.10
2022-11-29T05:35:15.244Z,0.00
2022-11-29T05:37:49.366Z,0.00
2022-11-29T05:40:25.017Z,0.00
2022-11-29T05:43:01.406Z,0.00
2022-11-29T05:45:32.940Z,0.00
2022-11-29T05:48:18.611Z,0.00
2022-11-29T05:53:24.240Z,0.00
2022-11-29T05:55:51.266Z,0.00
2022-11-29T05:58:44.212Z,0.00
2022-11-29T06:01:29.131Z,0.05
2022-11-29T06:03:56.248Z,0.00
2022-11-29T06:06:28.829Z,0.00
2022-11-29T06:09:00.469Z,0.00
2022-11-29T06:11:44.792Z,0.00
2022-11-29T06:14:31.437Z,0.00
2022-11-29T06:17:25.776Z,0.00
2022-11-29T06:20:13.143Z,0.00
2022-11-29T06:22:43.152Z,0.00
2022-11-29T06:25:13.122Z,0.00
2022-11-29T06:28:04.378Z,0.00
2022-11-29T06:30:39.260Z,0.00
2022-11-29T06:33:15.708Z,0.00
2022-11-29T06:35:45.795Z,0.00
2022-11-29T06:38:16.080Z,0.00
2022-11-29T06:40:43.541Z,0.00
2022-11-29T06:43:11.068Z,0.08
2022-11-29T06:45:38.320Z,0.00
2022-11-29T06:48:07.097Z,0.00
2022-11-29T06:50:34.192Z,0.00
2022-11-29T06:53:01.364Z,0.00
2022-11-29T06:55:34.452Z,0.00
2022-11-29T06:58:04.476Z,0.00
2022-11-29T07:00:50.243Z,0.00
2022-11-29T07:03:29.375Z,0.00
2022-11-29T07:05:58.090Z,0.00
2022-11-29T07:08:26.292Z,0.00
2022-11-29T07:10:55.601Z,0.00
2022-11-29T07:13:23.186Z,0.10
2022-11-29T07:16:08.006Z,0.00
2022-11-29T07:18:40.881Z,0.10
2022-11-29T07:21:14.237Z,0.00
2022-11-29T07:23:56.558Z,0.05
2022-11-29T07:26:26.743Z,0.00
2022-11-29T07:29:05.767Z,0.00
2022-11-29T07:31:42.023Z,0.00
2022-11-29T07:34:12.616Z,0.00
2022-11-29T07:36:39.694Z,0.00
2022-11-29T07:39:09.897Z,0.20
2022-11-29T07:41:52.260Z,0.03
2022-11-29T07:44:25.616Z,0.00
2022-11-29T07:46:52.869Z,0.00
2022-11-29T07:49:20.024Z,0.00
2022-11-29T07:51:47.214Z,0.00
2022-11-29T07:54:17.467Z,0.00
2022-11-29T07:56:44.647Z,0.00
2022-11-29T07:59:14.624Z,0.10
2022-11-29T08:01:42.570Z,0.20
2022-11-29T08:04:10.100Z,0.08
2022-11-29T08:06:37.441Z,0.10
2022-11-29T08:09:05.329Z,0.10
2022-11-29T08:11:32.433Z,0.00
2022-11-29T08:14:00.619Z,0.00
2022-11-29T08:16:27.914Z,0.00
2022-11-29T08:18:55.096Z,0.00
2022-11-29T08:21:22.349Z,0.10
2022-11-29T08:23:49.965Z,0.00
2022-11-29T08:26:18.028Z,0.00
2022-11-29T08:28:45.154Z,0.00
2022-11-29T08:31:13.793Z,0.08
2022-11-29T08:33:42.913Z,0.10
2022-11-29T08:36:22.378Z,0.00
2022-11-29T08:38:49.428Z,0.05
2022-11-29T08:41:17.305Z,0.08
2022-11-29T08:43:44.922Z,0.10
2022-11-29T08:46:16.900Z,0.00
2022-11-29T08:48:45.617Z,0.10
2022-11-29T08:51:12.691Z,0.10
2022-11-29T08:53:43.055Z,0.10
2022-11-29T08:56:53.479Z,0.22
2022-11-29T08:59:01.517Z,0.30
2022-11-29T09:01:29.518Z,0.30
2022-11-29T09:04:00.109Z,0.20
2022-11-29T09:06:28.238Z,0.30
2022-11-29T09:08:56.496Z,0.20
2022-11-29T09:11:25.019Z,0.30
2022-11-29T09:13:54.038Z,0.30
2022-11-29T09:16:23.405Z,0.20
2022-11-29T09:18:52.180Z,0.30
2022-11-29T09:21:19.537Z,0.22
2022-11-29T09:23:46.925Z,0.35
2022-11-29T09:26:18.405Z,0.30
2022-11-29T09:28:45.688Z,0.10
2022-11-29T09:31:13.954Z,0.10
2022-11-29T09:33:41.696Z,0.20
2022-11-29T09:36:09.876Z,0.30
2022-11-29T09:38:37.595Z,0.30
2022-11-29T09:41:16.803Z,0.20
2022-11-29T09:44:00.840Z,0.43
2022-11-29T09:46:46.048Z,0.20
2022-11-29T09:49:31.532Z,0.25
2022-11-29T09:52:16.712Z,0.20
2022-11-29T09:54:52.806Z,0.20
2022-11-29T09:57:21.749Z,0.20
2022-11-29T09:59:50.211Z,0.20
2022-11-29T10:02:23.554Z,0.30
2022-11-29T10:04:55.701Z,0.10
2022-11-29T10:07:27.384Z,0.20
2022-11-29T10:09:57.883Z,0.28
2022-11-29T10:12:31.300Z,0.40
2022-11-29T10:14:58.383Z,0.10
2022-11-29T10:17:25.557Z,0.30
2022-11-29T10:19:55.644Z,0.20
2022-11-29T10:22:26.176Z,0.10
2022-11-29T10:24:55.474Z,0.10
2022-11-29T10:27:24.921Z,0.10
2022-11-29T10:29:52.426Z,0.08
2022-11-29T10:32:21.329Z,0.10
2022-11-29T10:34:49.194Z,0.17
2022-11-29T10:37:20.614Z,0.10
2022-11-29T10:39:54.008Z,0.38
2022-11-29T10:42:44.339Z,0.10
2022-11-29T10:45:31.949Z,0.10
2022-11-29T10:48:02.567Z,0.10
2022-11-29T10:50:31.108Z,0.10
2022-11-29T10:53:01.868Z,0.22
2022-11-29T10:55:31.541Z,0.00
2022-11-29T10:58:12.897Z,0.13
2022-11-29T11:00:46.038Z,0.05
2022-11-29T11:03:15.877Z,0.10
2022-11-29T11:05:43.129Z,0.10
2022-11-29T11:08:18.550Z,0.10
2022-11-29T11:10:57.478Z,0.10
2022-11-29T11:13:29.889Z,0.10
2022-11-29T11:15:58.565Z,0.10
2022-11-29T11:18:29.047Z,0.10
2022-11-29T11:21:02.507Z,0.00
2022-11-29T11:23:31.139Z,0.20
2022-11-29T11:25:59.897Z,0.10
2022-11-29T11:28:28.409Z,0.20
2022-11-29T11:30:58.121Z,0.08
2022-11-29T11:33:29.841Z,0.10
2022-11-29T11:36:02.824Z,0.15
2022-11-29T11:38:30.198Z,0.10
2022-11-29T11:41:04.969Z,0.10
2022-11-29T11:43:32.434Z,0.10
2022-11-29T11:45:59.552Z,0.00
2022-11-29T11:48:27.092Z,0.00
2022-11-29T11:50:56.832Z,0.15
2022-11-29T11:53:36.346Z,0.10
2022-11-29T11:56:05.419Z,0.05
2022-11-29T11:58:38.484Z,0.10
2022-11-29T12:01:25.764Z,0.10
2022-11-29T12:03:59.692Z,0.20
2022-11-29T12:06:46.918Z,0.22
2022-11-29T12:09:26.046Z,0.20
2022-11-29T12:12:15.386Z,0.20
2022-11-29T12:14:45.723Z,0.17
2022-11-29T12:17:20.205Z,0.10
2022-11-29T12:19:52.871Z,0.10
2022-11-29T12:22:23.022Z,0.20
2022-11-29T12:24:59.664Z,0.10
2022-11-29T12:27:26.792Z,0.28
2022-11-29T12:29:53.928Z,0.10
2022-11-29T12:32:24.765Z,0.10
2022-11-29T12:35:00.907Z,0.10
2022-11-29T12:37:43.921Z,0.10
2022-11-29T12:40:13.849Z,0.20
2022-11-29T12:42:46.885Z,0.17
2022-11-29T12:45:19.902Z,0.13
2022-11-29T12:47:52.112Z,0.20
2022-11-29T12:50:25.545Z,0.20
2022-11-29T12:53:11.341Z,0.20
2022-11-29T12:55:57.303Z,0.13
2022-11-29T12:58:33.280Z,0.10
2022-11-29T13:01:19.144Z,0.30
2022-11-29T13:03:57.115Z,0.10
2022-11-29T13:06:30.479Z,0.10
2022-11-29T13:09:09.666Z,0.10
2022-11-29T13:11:48.650Z,0.20
2022-11-29T13:14:43.478Z,0.10
2022-11-29T13:17:40.530Z,0.10
2022-11-29T13:20:33.880Z,0.10
2022-11-29T13:23:03.850Z,0.20
2022-11-29T13:25:33.179Z,0.20
2022-11-29T13:28:08.001Z,0.17
2022-11-29T13:30:35.746Z,0.10
2022-11-29T13:33:08.438Z,0.20
2022-11-29T13:35:54.105Z,0.10
2022-11-29T13:41:08.428Z,0.10
2022-11-29T13:43:38.690Z,0.10
2022-11-29T13:46:26.121Z,0.10
2022-11-29T13:48:54.685Z,0.00
2022-11-29T13:51:29.654Z,0.10
2022-11-29T13:53:57.842Z,0.03
2022-11-29T13:56:26.442Z,0.10
2022-11-29T13:58:54.883Z,0.00
2022-11-29T14:01:23.441Z,0.10
2022-11-29T14:04:09.234Z,0.10
2022-11-29T14:09:20.019Z,0.00
2022-11-29T14:11:50.067Z,0.10
2022-11-29T14:14:17.170Z,0.10
2022-11-29T14:16:44.195Z,0.05
2022-11-29T14:19:12.015Z,0.00
2022-11-29T14:21:58.091Z,0.00
2022-11-29T14:24:38.016Z,0.00
2022-11-29T14:27:14.528Z,0.00
2022-11-29T14:29:54.052Z,0.10
2022-11-29T14:32:21.152Z,0.00
2022-11-29T14:34:54.305Z,0.10
2022-11-29T14:37:32.947Z,0.10
2022-11-29T14:40:02.136Z,0.10
2022-11-29T14:42:29.713Z,0.10
2022-11-29T14:45:00.825Z,0.08
2022-11-29T14:47:31.386Z,0.00
2022-11-29T14:49:59.930Z,0.00
2022-11-29T14:52:28.839Z,0.00
2022-11-29T14:55:14.463Z,0.00
2022-11-29T14:57:50.321Z,0.10
2022-11-29T15:00:18.460Z,0.00
2022-11-29T15:02:48.969Z,0.10
2022-11-29T15:05:21.315Z,0.10
2022-11-29T15:07:52.282Z,0.10
2022-11-29T15:10:25.177Z,0.00
2022-11-29T15:12:52.891Z,0.10
2022-11-29T15:15:28.906Z,0.10
2022-11-29T15:18:00.872Z,0.00
2022-11-29T15:20:40.426Z,0.00
2022-11-29T15:23:14.808Z,0.10
2022-11-29T15:25:49.521Z,0.10
2022-11-29T15:28:24.401Z,0.03
2022-11-29T15:31:01.089Z,0.00
2022-11-29T15:33:28.761Z,0.10
2022-11-29T15:35:57.498Z,0.10
2022-11-29T15:38:40.772Z,0.20
2022-11-29T15:41:18.353Z,0.10
2022-11-29T15:44:04.542Z,0.00
2022-11-29T15:46:32.839Z,0.10
2022-11-29T15:49:20.378Z,0.10
2022-11-29T15:51:50.451Z,0.10
2022-11-29T15:54:20.585Z,0.30
2022-11-29T15:56:59.653Z,0.10
2022-11-29T15:59:44.465Z,0.30
2022-11-29T16:02:37.674Z,0.20
2022-11-29T16:05:11.592Z,0.20
2022-11-29T16:07:39.447Z,0.10
2022-11-29T16:10:12.859Z,0.13
2022-11-29T16:13:04.837Z,0.13
2022-11-29T16:15:36.681Z,0.10
2022-11-29T16:18:05.130Z,0.10
2022-11-29T16:20:32.606Z,0.20
2022-11-29T16:23:18.493Z,0.20
2022-11-29T16:26:09.474Z,0.17
2022-11-29T16:28:38.070Z,0.20
2022-11-29T16:31:05.534Z,0.13
2022-11-29T16:33:33.224Z,0.10
2022-11-29T16:36:12.185Z,0.10
2022-11-29T16:38:45.652Z,0.10
2022-11-29T16:41:22.328Z,0.10
2022-11-29T16:44:02.354Z,0.30
2022-11-29T16:46:30.831Z,0.20
2022-11-29T16:49:02.056Z,0.10
2022-11-29T16:51:41.725Z,0.13
2022-11-29T16:54:25.753Z,0.15
2022-11-29T16:56:54.233Z,0.10
2022-11-29T16:59:26.782Z,0.08
2022-11-29T17:01:55.788Z,0.10
2022-11-29T17:04:24.874Z,0.15
2022-11-29T17:06:53.708Z,0.00
2022-11-29T17:09:22.805Z,0.10
2022-11-29T17:11:55.021Z,0.13
2022-11-29T17:14:22.429Z,0.20
2022-11-29T17:16:49.889Z,0.10
2022-11-29T17:19:17.411Z,0.10
2022-11-29T17:21:44.890Z,0.10
2022-11-29T17:24:14.205Z,0.20
2022-11-29T17:26:41.898Z,0.20
2022-11-29T17:29:10.857Z,0.10
2022-11-29T17:31:38.452Z,0.10
2022-11-29T17:34:05.859Z,0.20
2022-11-29T17:36:33.703Z,0.10
2022-11-29T17:39:06.228Z,0.30
2022-11-29T17:41:33.696Z,0.10
2022-11-29T17:44:01.238Z,0.10
2022-11-29T17:46:32.392Z,0.20
2022-11-29T17:49:00.701Z,0.13
2022-11-29T17:54:15.456Z,0.15
2022-11-29T17:56:42.605Z,0.20
2022-11-29T17:59:09.792Z,0.20
2022-11-29T18:01:37.196Z,0.20
2022-11-29T18:04:05.639Z,0.73
2022-11-29T18:06:40.515Z,0.30
2022-11-29T18:09:09.091Z,0.22
2022-11-29T18:11:48.968Z,0.25
2022-11-29T18:14:29.081Z,0.20
2022-11-29T18:16:56.477Z,0.20
2022-11-29T18:19:23.871Z,0.25
2022-11-29T18:21:51.746Z,0.13
2022-11-29T18:24:18.904Z,0.10
2022-11-29T18:26:46.250Z,0.30
2022-11-29T18:29:13.583Z,0.10
2022-11-29T18:31:42.510Z,0.20
2022-11-29T18:34:10.735Z,0.28
2022-11-29T18:36:39.692Z,0.50
2022-11-29T18:39:11.334Z,0.10
2022-11-29T18:41:38.697Z,0.20
2022-11-29T18:44:07.336Z,0.20
2022-11-29T18:46:36.806Z,0.30
2022-11-29T18:49:07.999Z,0.30
2022-11-29T18:51:36.078Z,0.10
2022-11-29T18:54:03.315Z,0.15
2022-11-29T18:56:31.711Z,0.20
2022-11-29T18:58:59.935Z,0.30
2022-11-29T19:01:28.824Z,0.10
2022-11-29T19:03:57.738Z,0.30
2022-11-29T19:06:30.803Z,0.20
2022-11-29T19:09:03.446Z,0.20
2022-11-29T19:11:31.459Z,0.20
2022-11-29T19:14:00.185Z,0.30
2022-11-29T19:16:29.299Z,0.20
2022-11-29T19:18:57.446Z,0.30
2022-11-29T19:21:25.674Z,0.22
2022-11-29T19:23:53.962Z,0.40
2022-11-29T19:26:21.929Z,0.20
2022-11-29T19:28:49.482Z,0.20
2022-11-29T19:31:17.599Z,0.20
2022-11-29T19:33:45.525Z,0.20
2022-11-29T19:36:12.625Z,0.13
2022-11-29T19:38:40.420Z,0.20
2022-11-29T19:41:08.495Z,0.20
2022-11-29T19:43:35.774Z,0.20
2022-11-29T19:46:13.395Z,0.20
2022-11-29T19:48:41.405Z,0.30
2022-11-29T19:51:09.140Z,0.20
2022-11-29T19:53:36.669Z,0.22
2022-11-29T19:56:05.133Z,0.13
2022-11-29T19:58:32.585Z,0.20
2022-11-29T20:01:10.284Z,0.20
2022-11-29T20:03:37.512Z,0.20
2022-11-29T20:06:05.104Z,0.30
2022-11-29T20:08:32.447Z,0.20
2022-11-29T20:11:10.167Z,0.28
2022-11-29T20:13:38.093Z,0.30
2022-11-29T20:16:09.936Z,0.20
2022-11-29T20:18:38.117Z,0.20
2022-11-29T20:21:13.226Z,0.20
2022-11-29T20:23:41.121Z,0.20
2022-11-29T20:26:12.417Z,0.20
2022-11-29T20:28:39.551Z,0.10
2022-11-29T20:31:09.690Z,0.28
2022-11-29T20:33:36.963Z,0.20
2022-11-29T20:36:14.443Z,0.10
2022-11-29T20:38:51.000Z,0.10
2022-11-29T20:41:23.842Z,0.25
2022-11-29T20:43:59.724Z,0.22
2022-11-29T20:46:36.229Z,0.10
2022-11-29T20:49:06.743Z,0.15
2022-11-29T20:52:00.148Z,0.20
2022-11-29T20:54:27.176Z,0.20
2022-11-29T20:56:56.855Z,0.10
2022-11-29T20:59:24.157Z,0.10
2022-11-29T21:01:51.375Z,0.20
2022-11-29T21:04:23.200Z,0.10
2022-11-29T21:06:50.864Z,0.10
2022-11-29T21:09:20.679Z,0.10
2022-11-29T21:11:48.039Z,0.13
2022-11-29T21:14:15.382Z,0.10
2022-11-29T21:16:42.748Z,0.10
2022-11-29T21:19:13.188Z,0.10
2022-11-29T21:21:46.152Z,0.10
2022-11-29T21:24:33.653Z,0.20
2022-11-29T21:27:01.030Z,0.10
2022-11-29T21:29:28.222Z,0.10
2022-11-29T21:31:55.628Z,0.10
2022-11-29T21:34:25.699Z,0.10
2022-11-29T21:36:57.382Z,0.10
2022-11-29T21:39:27.117Z,0.10
2022-11-29T21:41:57.061Z,0.20
2022-11-29T21:44:24.220Z,0.10
2022-11-29T21:46:51.453Z,0.10
2022-11-29T21:49:18.550Z,0.10
2022-11-29T21:51:47.447Z,0.10
2022-11-29T21:54:14.696Z,0.20
